Etusivu
METAR-TAF:

METAR-TAF

Lentoasemat :

Morrisville-Stowe State Airport

Morrisville, Vermont, Yhdysvallat

Leveyspiiri: 44-32-10N, Pituuspiiri: 072-36-58W, korkeus merenpinnasta: 223 m

Tämänhetkinen sää

Tämä raportti tehtiin 1 tunti ja 10 minuuttia sitten, kello 00.54 UTC
Tuuli 4 kn etelästä
Lämpötila 3°C
Kosteus 65%
Ilmanpaine 1013 hPa
Näkyvyys: 16.1 km
selkeää

METAR: KMVL 250054Z AUTO 18004KT 10SM CLR 03/M03 A2992 RMK AO2 SLP142 T00331028

Aika: 21:04 (02:04 UTC)


TAF: puuttuu

Säähavainnot ja -ennusteet yli 4000 lentoasemalta (METAR- ja TAF-raportit).

Käytössä olevat sääasemat on merkitty karttaan keltaisilla ja punaisilla pisteillä.

Aseta hiiri pisteen päälle nähdäksesi sääaseman nimen.

Klikkaa sitten nähdäksesi säähavainnot ja -ennusteet.

Kartan vaihtaminen: klikkaa mustalla rastilla varustettuja vihreitä pisteitä, niin voit zoomata sisään; viivalla varustettua vihreää pistettä, niin voit zoomata ulos tai vihreitä nuolia, niin pääset viereisille kartoille.


METAR-TAF: